sensor_id;sensor_type;location;lat;lon;timestamp;temperature;humidity
43772;HTU21D;59066;54.782;32.024;2023-04-15T00:01:13;7.74;30.54
43772;HTU21D;59066;54.782;32.024;2023-04-15T00:03:45;7.72;30.64
43772;HTU21D;59066;54.782;32.024;2023-04-15T00:06:14;7.72;30.60
43772;HTU21D;59066;54.782;32.024;2023-04-15T00:08:41;7.72;30.61
43772;HTU21D;59066;54.782;32.024;2023-04-15T00:11:10;7.70;30.58
43772;HTU21D;59066;54.782;32.024;2023-04-15T00:13:37;7.69;30.48
43772;HTU21D;59066;54.782;32.024;2023-04-15T00:16:06;7.69;30.35
43772;HTU21D;59066;54.782;32.024;2023-04-15T00:18:34;7.64;30.38
43772;HTU21D;59066;54.782;32.024;2023-04-15T00:21:03;7.61;30.38
43772;HTU21D;59066;54.782;32.024;2023-04-15T00:23:31;7.59;30.39
43772;HTU21D;59066;54.782;32.024;2023-04-15T00:25:58;7.59;30.41
43772;HTU21D;59066;54.782;32.024;2023-04-15T00:28:26;7.59;30.37
43772;HTU21D;59066;54.782;32.024;2023-04-15T00:30:54;7.64;30.29
43772;HTU21D;59066;54.782;32.024;2023-04-15T00:33:22;7.59;30.25
43772;HTU21D;59066;54.782;32.024;2023-04-15T00:35:50;7.58;30.35
43772;HTU21D;59066;54.782;32.024;2023-04-15T00:38:18;7.56;30.38
43772;HTU21D;59066;54.782;32.024;2023-04-15T00:40:45;7.57;30.32
43772;HTU21D;59066;54.782;32.024;2023-04-15T00:43:13;7.55;30.27
43772;HTU21D;59066;54.782;32.024;2023-04-15T00:45:41;7.54;30.35
43772;HTU21D;59066;54.782;32.024;2023-04-15T00:48:09;7.47;30.25
43772;HTU21D;59066;54.782;32.024;2023-04-15T00:50:38;7.45;30.29
43772;HTU21D;59066;54.782;32.024;2023-04-15T00:53:05;7.41;30.32
43772;HTU21D;59066;54.782;32.024;2023-04-15T00:55:33;7.44;30.29
43772;HTU21D;59066;54.782;32.024;2023-04-15T00:58:01;7.42;30.23
43772;HTU21D;59066;54.782;32.024;2023-04-15T01:00:29;7.39;30.25
43772;HTU21D;59066;54.782;32.024;2023-04-15T01:02:57;7.38;30.18
43772;HTU21D;59066;54.782;32.024;2023-04-15T01:05:25;7.30;30.22
43772;HTU21D;59066;54.782;32.024;2023-04-15T01:07:54;7.28;30.29
43772;HTU21D;59066;54.782;32.024;2023-04-15T01:10:22;7.31;30.26
43772;HTU21D;59066;54.782;32.024;2023-04-15T01:12:50;7.30;30.25
43772;HTU21D;59066;54.782;32.024;2023-04-15T01:15:17;7.27;30.20
43772;HTU21D;59066;54.782;32.024;2023-04-15T01:17:45;7.29;30.24
43772;HTU21D;59066;54.782;32.024;2023-04-15T01:20:13;7.25;30.16
43772;HTU21D;59066;54.782;32.024;2023-04-15T01:22:42;7.22;30.17
43772;HTU21D;59066;54.782;32.024;2023-04-15T01:25:17;7.20;30.09
43772;HTU21D;59066;54.782;32.024;2023-04-15T01:27:46;7.19;30.12
43772;HTU21D;59066;54.782;32.024;2023-04-15T01:30:14;7.20;30.13
43772;HTU21D;59066;54.782;32.024;2023-04-15T01:32:42;7.22;30.17
43772;HTU21D;59066;54.782;32.024;2023-04-15T01:35:29;7.19;30.13
43772;HTU21D;59066;54.782;32.024;2023-04-15T01:38:04;7.18;30.19
43772;HTU21D;59066;54.782;32.024;2023-04-15T01:40:33;7.19;30.19
43772;HTU21D;59066;54.782;32.024;2023-04-15T01:43:02;7.11;30.23
43772;HTU21D;59066;54.782;32.024;2023-04-15T01:45:31;7.14;30.25
43772;HTU21D;59066;54.782;32.024;2023-04-15T01:48:00;7.12;30.29
43772;HTU21D;59066;54.782;32.024;2023-04-15T01:50:28;7.14;30.23
43772;HTU21D;59066;54.782;32.024;2023-04-15T01:52:57;7.05;30.23
43772;HTU21D;59066;54.782;32.024;2023-04-15T01:55:26;7.01;30.26
43772;HTU21D;59066;54.782;32.024;2023-04-15T01:57:55;6.95;30.34
43772;HTU21D;59066;54.782;32.024;2023-04-15T02:00:24;6.91;30.40
43772;HTU21D;59066;54.782;32.024;2023-04-15T02:02:54;6.84;30.41
43772;HTU21D;59066;54.782;32.024;2023-04-15T02:05:25;6.87;30.35
43772;HTU21D;59066;54.782;32.024;2023-04-15T02:07:54;6.85;30.39
43772;HTU21D;59066;54.782;32.024;2023-04-15T02:10:23;6.85;30.37
43772;HTU21D;59066;54.782;32.024;2023-04-15T02:12:52;6.83;30.48
43772;HTU21D;59066;54.782;32.024;2023-04-15T02:15:22;6.82;30.48
43772;HTU21D;59066;54.782;32.024;2023-04-15T02:17:50;6.82;30.38
43772;HTU21D;59066;54.782;32.024;2023-04-15T02:20:22;6.80;30.43
43772;HTU21D;59066;54.782;32.024;2023-04-15T02:22:51;6.80;30.44
43772;HTU21D;59066;54.782;32.024;2023-04-15T02:25:20;6.75;30.52
43772;HTU21D;59066;54.782;32.024;2023-04-15T02:27:48;6.72;30.58
43772;HTU21D;59066;54.782;32.024;2023-04-15T02:30:17;6.69;30.65
43772;HTU21D;59066;54.782;32.024;2023-04-15T02:32:46;6.65;30.72
43772;HTU21D;59066;54.782;32.024;2023-04-15T02:35:16;6.65;30.74
43772;HTU21D;59066;54.782;32.024;2023-04-15T02:37:47;6.65;30.77
43772;HTU21D;59066;54.782;32.024;2023-04-15T02:40:16;6.67;30.76
43772;HTU21D;59066;54.782;32.024;2023-04-15T02:42:46;6.66;30.71
43772;HTU21D;59066;54.782;32.024;2023-04-15T02:45:16;6.69;30.73
43772;HTU21D;59066;54.782;32.024;2023-04-15T02:47:47;6.68;30.75
43772;HTU21D;59066;54.782;32.024;2023-04-15T02:50:15;6.64;30.74
43772;HTU21D;59066;54.782;32.024;2023-04-15T02:52:45;6.64;30.77
43772;HTU21D;59066;54.782;32.024;2023-04-15T02:55:14;6.61;30.76
43772;HTU21D;59066;54.782;32.024;2023-04-15T02:57:43;6.55;30.84
43772;HTU21D;59066;54.782;32.024;2023-04-15T03:00:12;6.49;30.93
43772;HTU21D;59066;54.782;32.024;2023-04-15T03:02:45;6.48;30.92
43772;HTU21D;59066;54.782;32.024;2023-04-15T03:05:14;6.52;30.86
43772;HTU21D;59066;54.782;32.024;2023-04-15T03:07:52;6.48;30.96
43772;HTU21D;59066;54.782;32.024;2023-04-15T03:10:21;6.35;31.08
43772;HTU21D;59066;54.782;32.024;2023-04-15T03:12:50;6.34;31.05
43772;HTU21D;59066;54.782;32.024;2023-04-15T03:15:21;6.31;31.06
43772;HTU21D;59066;54.782;32.024;2023-04-15T03:17:52;6.31;31.13
43772;HTU21D;59066;54.782;32.024;2023-04-15T03:20:21;6.29;31.28
43772;HTU21D;59066;54.782;32.024;2023-04-15T03:22:50;6.28;31.28
43772;HTU21D;59066;54.782;32.024;2023-04-15T03:25:21;6.25;31.32
43772;HTU21D;59066;54.782;32.024;2023-04-15T03:27:50;6.24;31.51
43772;HTU21D;59066;54.782;32.024;2023-04-15T03:30:19;6.22;31.49
43772;HTU21D;59066;54.782;32.024;2023-04-15T03:32:48;6.25;31.44
43772;HTU21D;59066;54.782;32.024;2023-04-15T03:35:17;6.30;31.41
43772;HTU21D;59066;54.782;32.024;2023-04-15T03:37:46;6.31;31.44
43772;HTU21D;59066;54.782;32.024;2023-04-15T03:40:16;6.34;31.47
43772;HTU21D;59066;54.782;32.024;2023-04-15T03:42:45;6.34;31.52
43772;HTU21D;59066;54.782;32.024;2023-04-15T03:45:14;6.41;31.46
43772;HTU21D;59066;54.782;32.024;2023-04-15T03:47:43;6.35;31.51
43772;HTU21D;59066;54.782;32.024;2023-04-15T03:50:12;6.38;31.54
43772;HTU21D;59066;54.782;32.024;2023-04-15T03:52:41;6.39;31.59
43772;HTU21D;59066;54.782;32.024;2023-04-15T03:55:10;6.36;31.58
43772;HTU21D;59066;54.782;32.024;2023-04-15T03:57:38;6.42;31.51
43772;HTU21D;59066;54.782;32.024;2023-04-15T04:00:08;6.43;31.54
43772;HTU21D;59066;54.782;32.024;2023-04-15T04:02:40;6.43;31.54
43772;HTU21D;59066;54.782;32.024;2023-04-15T04:05:10;6.48;31.54
43772;HTU21D;59066;54.782;32.024;2023-04-15T04:07:39;6.54;31.50
43772;HTU21D;59066;54.782;32.024;2023-04-15T04:10:08;6.50;31.51
43772;HTU21D;59066;54.782;32.024;2023-04-15T04:12:37;6.46;31.58
43772;HTU21D;59066;54.782;32.024;2023-04-15T04:15:06;6.53;31.51
43772;HTU21D;59066;54.782;32.024;2023-04-15T04:17:35;6.52;31.48
43772;HTU21D;59066;54.782;32.024;2023-04-15T04:20:04;6.48;31.54
43772;HTU21D;59066;54.782;32.024;2023-04-15T04:22:40;6.48;31.48
43772;HTU21D;59066;54.782;32.024;2023-04-15T04:25:09;6.48;31.52
43772;HTU21D;59066;54.782;32.024;2023-04-15T04:27:38;6.52;31.38
43772;HTU21D;59066;54.782;32.024;2023-04-15T04:30:07;6.49;31.27
43772;HTU21D;59066;54.782;32.024;2023-04-15T04:32:36;6.40;31.51
43772;HTU21D;59066;54.782;32.024;2023-04-15T04:35:05;6.43;31.41
43772;HTU21D;59066;54.782;32.024;2023-04-15T04:37:34;6.45;31.29
43772;HTU21D;59066;54.782;32.024;2023-04-15T04:40:03;6.50;31.25
43772;HTU21D;59066;54.782;32.024;2023-04-15T04:42:32;6.58;31.16
43772;HTU21D;59066;54.782;32.024;2023-04-15T04:45:01;6.58;31.10
43772;HTU21D;59066;54.782;32.024;2023-04-15T04:47:30;6.58;31.08
43772;HTU21D;59066;54.782;32.024;2023-04-15T04:49:59;6.54;31.06
43772;HTU21D;59066;54.782;32.024;2023-04-15T04:52:28;6.49;31.12
43772;HTU21D;59066;54.782;32.024;2023-04-15T04:54:57;6.46;31.09
43772;HTU21D;59066;54.782;32.024;2023-04-15T04:57:25;6.49;30.95
43772;HTU21D;59066;54.782;32.024;2023-04-15T04:59:54;6.45;30.95
43772;HTU21D;59066;54.782;32.024;2023-04-15T05:02:23;6.49;30.94
43772;HTU21D;59066;54.782;32.024;2023-04-15T05:04:54;6.57;30.90
43772;HTU21D;59066;54.782;32.024;2023-04-15T05:07:23;6.65;30.80
43772;HTU21D;59066;54.782;32.024;2023-04-15T05:09:52;6.67;30.79
43772;HTU21D;59066;54.782;32.024;2023-04-15T05:12:21;6.67;30.74
43772;HTU21D;59066;54.782;32.024;2023-04-15T05:14:50;6.65;30.72
43772;HTU21D;59066;54.782;32.024;2023-04-15T05:17:18;6.66;30.57
43772;HTU21D;59066;54.782;32.024;2023-04-15T05:19:47;6.67;30.49
43772;HTU21D;59066;54.782;32.024;2023-04-15T05:22:19;6.63;30.51
43772;HTU21D;59066;54.782;32.024;2023-04-15T05:24:50;6.58;30.45
43772;HTU21D;59066;54.782;32.024;2023-04-15T05:27:19;6.65;30.47
43772;HTU21D;59066;54.782;32.024;2023-04-15T05:29:48;6.73;30.34
43772;HTU21D;59066;54.782;32.024;2023-04-15T05:32:17;6.79;30.19
43772;HTU21D;59066;54.782;32.024;2023-04-15T05:34:46;6.80;30.22
43772;HTU21D;59066;54.782;32.024;2023-04-15T05:37:14;6.85;30.19
43772;HTU21D;59066;54.782;32.024;2023-04-15T05:39:44;6.86;30.12
43772;HTU21D;59066;54.782;32.024;2023-04-15T05:42:12;6.82;30.13
43772;HTU21D;59066;54.782;32.024;2023-04-15T05:44:44;6.85;30.03
43772;HTU21D;59066;54.782;32.024;2023-04-15T05:47:13;6.81;30.03
43772;HTU21D;59066;54.782;32.024;2023-04-15T05:49:41;6.83;29.87
43772;HTU21D;59066;54.782;32.024;2023-04-15T05:52:10;6.93;29.84
43772;HTU21D;59066;54.782;32.024;2023-04-15T05:54:39;7.02;29.76
43772;HTU21D;59066;54.782;32.024;2023-04-15T05:57:08;7.09;29.65
43772;HTU21D;59066;54.782;32.024;2023-04-15T05:59:37;7.15;29.61
43772;HTU21D;59066;54.782;32.024;2023-04-15T06:02:08;7.09;29.39
43772;HTU21D;59066;54.782;32.024;2023-04-15T06:04:39;7.07;29.48
43772;HTU21D;59066;54.782;32.024;2023-04-15T06:07:17;7.02;29.82
43772;HTU21D;59066;54.782;32.024;2023-04-15T06:09:46;7.22;29.71
43772;HTU21D;59066;54.782;32.024;2023-04-15T06:12:16;7.38;29.50
43772;HTU21D;59066;54.782;32.024;2023-04-15T06:14:44;7.58;29.45
43772;HTU21D;59066;54.782;32.024;2023-04-15T06:17:13;7.63;29.26
43772;HTU21D;59066;54.782;32.024;2023-04-15T06:19:42;7.71;29.25
43772;HTU21D;59066;54.782;32.024;2023-04-15T06:22:11;7.76;28.99
43772;HTU21D;59066;54.782;32.024;2023-04-15T06:24:43;7.76;28.92
43772;HTU21D;59066;54.782;32.024;2023-04-15T06:27:12;7.83;28.81
43772;HTU21D;59066;54.782;32.024;2023-04-15T06:29:40;7.85;28.77
43772;HTU21D;59066;54.782;32.024;2023-04-15T06:32:09;7.93;28.65
43772;HTU21D;59066;54.782;32.024;2023-04-15T06:34:39;8.06;28.55
43772;HTU21D;59066;54.782;32.024;2023-04-15T06:37:08;8.16;28.49
43772;HTU21D;59066;54.782;32.024;2023-04-15T06:39:38;8.15;28.08
43772;HTU21D;59066;54.782;32.024;2023-04-15T06:42:08;8.16;28.05
43772;HTU21D;59066;54.782;32.024;2023-04-15T06:44:37;8.01;27.93
43772;HTU21D;59066;54.782;32.024;2023-04-15T06:47:11;8.03;27.78
43772;HTU21D;59066;54.782;32.024;2023-04-15T06:49:42;8.02;27.55
43772;HTU21D;59066;54.782;32.024;2023-04-15T06:52:11;7.99;27.63
43772;HTU21D;59066;54.782;32.024;2023-04-15T06:54:40;8.14;27.54
43772;HTU21D;59066;54.782;32.024;2023-04-15T06:57:09;8.22;27.42
43772;HTU21D;59066;54.782;32.024;2023-04-15T06:59:38;8.34;27.34
43772;HTU21D;59066;54.782;32.024;2023-04-15T07:02:09;8.49;27.13
43772;HTU21D;59066;54.782;32.024;2023-04-15T07:04:39;8.59;27.04
43772;HTU21D;59066;54.782;32.024;2023-04-15T07:07:08;8.60;27.09
43772;HTU21D;59066;54.782;32.024;2023-04-15T07:09:37;8.57;26.84
43772;HTU21D;59066;54.782;32.024;2023-04-15T07:12:06;8.60;26.84
43772;HTU21D;59066;54.782;32.024;2023-04-15T07:14:35;8.70;26.68
43772;HTU21D;59066;54.782;32.024;2023-04-15T07:17:04;8.65;26.33
43772;HTU21D;59066;54.782;32.024;2023-04-15T07:19:33;8.57;26.24
43772;HTU21D;59066;54.782;32.024;2023-04-15T07:22:01;8.62;26.28
43772;HTU21D;59066;54.782;32.024;2023-04-15T07:24:31;8.67;26.16
43772;HTU21D;59066;54.782;32.024;2023-04-15T07:27:00;8.72;26.07
43772;HTU21D;59066;54.782;32.024;2023-04-15T07:29:29;8.72;25.76
43772;HTU21D;59066;54.782;32.024;2023-04-15T07:31:57;8.72;25.62
43772;HTU21D;59066;54.782;32.024;2023-04-15T07:34:26;8.83;25.54
43772;HTU21D;59066;54.782;32.024;2023-04-15T07:36:57;8.96;25.46
43772;HTU21D;59066;54.782;32.024;2023-04-15T07:39:26;9.10;25.16
43772;HTU21D;59066;54.782;32.024;2023-04-15T07:41:55;9.16;25.19
43772;HTU21D;59066;54.782;32.024;2023-04-15T07:44:25;9.24;24.91
43772;HTU21D;59066;54.782;32.024;2023-04-15T07:46:54;9.07;24.27
43772;HTU21D;59066;54.782;32.024;2023-04-15T07:49:23;9.07;24.67
43772;HTU21D;59066;54.782;32.024;2023-04-15T07:51:52;9.22;24.72
43772;HTU21D;59066;54.782;32.024;2023-04-15T07:54:21;9.24;24.43
43772;HTU21D;59066;54.782;32.024;2023-04-15T07:56:49;9.11;24.45
43772;HTU21D;59066;54.782;32.024;2023-04-15T07:59:18;9.27;24.69
43772;HTU21D;59066;54.782;32.024;2023-04-15T08:01:47;9.52;24.39
43772;HTU21D;59066;54.782;32.024;2023-04-15T08:04:16;9.48;23.85
43772;HTU21D;59066;54.782;32.024;2023-04-15T08:06:45;9.47;23.47
43772;HTU21D;59066;54.782;32.024;2023-04-15T08:09:15;9.51;23.66
43772;HTU21D;59066;54.782;32.024;2023-04-15T08:11:45;9.63;23.48
43772;HTU21D;59066;54.782;32.024;2023-04-15T08:14:14;9.78;23.23
43772;HTU21D;59066;54.782;32.024;2023-04-15T08:16:42;9.80;23.14
43772;HTU21D;59066;54.782;32.024;2023-04-15T08:19:12;9.93;23.11
43772;HTU21D;59066;54.782;32.024;2023-04-15T08:21:40;10.01;22.90
43772;HTU21D;59066;54.782;32.024;2023-04-15T08:24:09;9.97;22.81
43772;HTU21D;59066;54.782;32.024;2023-04-15T08:26:38;9.94;22.81
43772;HTU21D;59066;54.782;32.024;2023-04-15T08:29:07;10.09;22.63
43772;HTU21D;59066;54.782;32.024;2023-04-15T08:31:36;9.90;22.72
43772;HTU21D;59066;54.782;32.024;2023-04-15T08:34:05;9.99;22.89
43772;HTU21D;59066;54.782;32.024;2023-04-15T08:36:34;10.11;22.50
43772;HTU21D;59066;54.782;32.024;2023-04-15T08:39:03;10.25;22.46
43772;HTU21D;59066;54.782;32.024;2023-04-15T08:41:46;10.30;22.13
43772;HTU21D;59066;54.782;32.024;2023-04-15T08:44:15;10.37;22.12
43772;HTU21D;59066;54.782;32.024;2023-04-15T08:46:45;10.46;21.98
43772;HTU21D;59066;54.782;32.024;2023-04-15T08:49:16;10.50;21.93
43772;HTU21D;59066;54.782;32.024;2023-04-15T08:51:46;10.57;21.87
43772;HTU21D;59066;54.782;32.024;2023-04-15T08:54:16;10.57;21.90
43772;HTU21D;59066;54.782;32.024;2023-04-15T08:56:46;10.67;21.63
43772;HTU21D;59066;54.782;32.024;2023-04-15T08:59:16;10.72;21.77
43772;HTU21D;59066;54.782;32.024;2023-04-15T09:01:45;10.88;21.56
43772;HTU21D;59066;54.782;32.024;2023-04-15T09:04:15;10.86;21.66
43772;HTU21D;59066;54.782;32.024;2023-04-15T09:06:44;11.11;21.60
43772;HTU21D;59066;54.782;32.024;2023-04-15T09:09:13;11.36;21.55
43772;HTU21D;59066;54.782;32.024;2023-04-15T09:11:42;11.48;21.37
43772;HTU21D;59066;54.782;32.024;2023-04-15T09:14:11;11.56;21.34
43772;HTU21D;59066;54.782;32.024;2023-04-15T09:17:00;11.57;20.66
43772;HTU21D;59066;54.782;32.024;2023-04-15T09:19:30;11.58;20.98
43772;HTU21D;59066;54.782;32.024;2023-04-15T09:22:01;11.67;20.88
43772;HTU21D;59066;54.782;32.024;2023-04-15T09:24:36;11.78;20.52
43772;HTU21D;59066;54.782;32.024;2023-04-15T09:27:06;11.78;20.33
43772;HTU21D;59066;54.782;32.024;2023-04-15T09:29:34;11.78;20.24
43772;HTU21D;59066;54.782;32.024;2023-04-15T09:32:14;11.94;19.99
43772;HTU21D;59066;54.782;32.024;2023-04-15T09:34:43;11.93;19.96
43772;HTU21D;59066;54.782;32.024;2023-04-15T09:37:13;11.90;19.99
43772;HTU21D;59066;54.782;32.024;2023-04-15T09:39:58;12.02;19.86
43772;HTU21D;59066;54.782;32.024;2023-04-15T09:42:28;12.03;19.34
43772;HTU21D;59066;54.782;32.024;2023-04-15T09:45:07;11.70;18.73
43772;HTU21D;59066;54.782;32.024;2023-04-15T09:47:36;11.75;19.29
43772;HTU21D;59066;54.782;32.024;2023-04-15T09:50:06;11.92;19.23
43772;HTU21D;59066;54.782;32.024;2023-04-15T09:52:40;12.12;18.80
43772;HTU21D;59066;54.782;32.024;2023-04-15T09:55:11;12.23;18.93
43772;HTU21D;59066;54.782;32.024;2023-04-15T09:57:40;12.30;18.83
43772;HTU21D;59066;54.782;32.024;2023-04-15T10:00:10;11.96;18.27
43772;HTU21D;59066;54.782;32.024;2023-04-15T10:02:40;12.34;18.62
43772;HTU21D;59066;54.782;32.024;2023-04-15T10:05:13;13.11;19.08
43772;HTU21D;59066;54.782;32.024;2023-04-15T10:07:42;14.03;19.35
43772;HTU21D;59066;54.782;32.024;2023-04-15T10:10:12;14.94;19.29
43772;HTU21D;59066;54.782;32.024;2023-04-15T10:12:42;15.75;17.83
43772;HTU21D;59066;54.782;32.024;2023-04-15T10:15:14;15.72;17.25
43772;HTU21D;59066;54.782;32.024;2023-04-15T10:17:47;16.22;17.51
43772;HTU21D;59066;54.782;32.024;2023-04-15T10:20:18;17.21;17.21
43772;HTU21D;59066;54.782;32.024;2023-04-15T10:22:50;18.05;16.74
43772;HTU21D;59066;54.782;32.024;2023-04-15T10:25:20;18.63;15.88
43772;HTU21D;59066;54.782;32.024;2023-04-15T10:27:50;18.74;15.59
43772;HTU21D;59066;54.782;32.024;2023-04-15T10:30:20;19.21;14.81
43772;HTU21D;59066;54.782;32.024;2023-04-15T10:32:50;19.63;14.05
43772;HTU21D;59066;54.782;32.024;2023-04-15T10:35:20;19.71;13.64
43772;HTU21D;59066;54.782;32.024;2023-04-15T10:37:49;20.05;13.37
43772;HTU21D;59066;54.782;32.024;2023-04-15T10:40:25;20.07;12.49
43772;HTU21D;59066;54.782;32.024;2023-04-15T10:43:00;20.10;12.75
43772;HTU21D;59066;54.782;32.024;2023-04-15T10:45:34;20.27;11.81
43772;HTU21D;59066;54.782;32.024;2023-04-15T10:48:06;20.60;11.68
43772;HTU21D;59066;54.782;32.024;2023-04-15T10:50:36;20.90;11.75
43772;HTU21D;59066;54.782;32.024;2023-04-15T10:53:09;21.22;11.05
43772;HTU21D;59066;54.782;32.024;2023-04-15T10:55:38;21.65;11.02
43772;HTU21D;59066;54.782;32.024;2023-04-15T10:58:08;21.85;10.83
43772;HTU21D;59066;54.782;32.024;2023-04-15T11:00:37;21.88;10.45
43772;HTU21D;59066;54.782;32.024;2023-04-15T11:03:08;22.12;10.06
43772;HTU21D;59066;54.782;32.024;2023-04-15T11:08:10;22.94;9.59
43772;HTU21D;59066;54.782;32.024;2023-04-15T11:15:47;22.79;8.24
43772;HTU21D;59066;54.782;32.024;2023-04-15T11:18:27;22.27;8.08
43772;HTU21D;59066;54.782;32.024;2023-04-15T11:21:02;21.79;8.75
43772;HTU21D;59066;54.782;32.024;2023-04-15T11:23:34;22.34;8.69
43772;HTU21D;59066;54.782;32.024;2023-04-15T11:26:05;22.32;8.45
43772;HTU21D;59066;54.782;32.024;2023-04-15T11:28:41;22.29;8.14
43772;HTU21D;59066;54.782;32.024;2023-04-15T11:31:13;22.42;8.21
43772;HTU21D;59066;54.782;32.024;2023-04-15T11:33:54;21.63;7.84
43772;HTU21D;59066;54.782;32.024;2023-04-15T11:36:24;21.45;8.42
43772;HTU21D;59066;54.782;32.024;2023-04-15T11:38:56;21.06;8.43
43772;HTU21D;59066;54.782;32.024;2023-04-15T11:41:26;20.92;8.56
43772;HTU21D;59066;54.782;32.024;2023-04-15T11:43:55;20.84;8.68
43772;HTU21D;59066;54.782;32.024;2023-04-15T11:46:30;20.78;8.60
43772;HTU21D;59066;54.782;32.024;2023-04-15T11:48:59;20.49;8.68
43772;HTU21D;59066;54.782;32.024;2023-04-15T11:51:31;19.82;9.31
43772;HTU21D;59066;54.782;32.024;2023-04-15T11:54:00;19.85;9.31
43772;HTU21D;59066;54.782;32.024;2023-04-15T11:56:28;19.92;9.31
43772;HTU21D;59066;54.782;32.024;2023-04-15T11:58:57;19.74;9.44
43772;HTU21D;59066;54.782;32.024;2023-04-15T12:01:37;19.31;9.41
43772;HTU21D;59066;54.782;32.024;2023-04-15T12:04:13;18.66;9.52
43772;HTU21D;59066;54.782;32.024;2023-04-15T12:06:41;18.05;10.00
43772;HTU21D;59066;54.782;32.024;2023-04-15T12:09:10;17.82;10.09
43772;HTU21D;59066;54.782;32.024;2023-04-15T12:14:26;17.37;10.54
43772;HTU21D;59066;54.782;32.024;2023-04-15T12:19:37;17.03;10.72
43772;HTU21D;59066;54.782;32.024;2023-04-15T12:22:08;16.84;11.14
43772;HTU21D;59066;54.782;32.024;2023-04-15T12:24:37;16.28;10.96
43772;HTU21D;59066;54.782;32.024;2023-04-15T12:27:07;15.82;11.04
43772;HTU21D;59066;54.782;32.024;2023-04-15T12:29:36;15.41;11.55
43772;HTU21D;59066;54.782;32.024;2023-04-15T12:32:12;15.08;12.17
43772;HTU21D;59066;54.782;32.024;2023-04-15T12:34:42;14.87;12.21
43772;HTU21D;59066;54.782;32.024;2023-04-15T12:37:11;14.71;12.52
43772;HTU21D;59066;54.782;32.024;2023-04-15T12:39:41;14.60;12.75
43772;HTU21D;59066;54.782;32.024;2023-04-15T12:42:10;14.47;12.89
43772;HTU21D;59066;54.782;32.024;2023-04-15T12:44:38;14.40;12.83
43772;HTU21D;59066;54.782;32.024;2023-04-15T12:47:07;14.37;13.00
43772;HTU21D;59066;54.782;32.024;2023-04-15T12:49:35;14.36;13.20
43772;HTU21D;59066;54.782;32.024;2023-04-15T12:52:05;14.37;13.17
43772;HTU21D;59066;54.782;32.024;2023-04-15T12:54:32;14.52;13.09
43772;HTU21D;59066;54.782;32.024;2023-04-15T12:57:01;14.39;13.08
43772;HTU21D;59066;54.782;32.024;2023-04-15T12:59:32;13.92;13.17
43772;HTU21D;59066;54.782;32.024;2023-04-15T13:01:59;13.84;13.42
43772;HTU21D;59066;54.782;32.024;2023-04-15T13:04:29;13.68;13.54
43772;HTU21D;59066;54.782;32.024;2023-04-15T13:06:57;13.81;13.62
43772;HTU21D;59066;54.782;32.024;2023-04-15T13:09:25;14.08;13.67
43772;HTU21D;59066;54.782;32.024;2023-04-15T13:11:53;13.92;13.47
43772;HTU21D;59066;54.782;32.024;2023-04-15T13:14:20;13.89;13.41
43772;HTU21D;59066;54.782;32.024;2023-04-15T13:16:48;13.96;13.40
43772;HTU21D;59066;54.782;32.024;2023-04-15T13:19:15;14.14;13.26
43772;HTU21D;59066;54.782;32.024;2023-04-15T13:21:43;14.42;13.25
43772;HTU21D;59066;54.782;32.024;2023-04-15T13:24:11;14.21;13.23
43772;HTU21D;59066;54.782;32.024;2023-04-15T13:26:38;14.03;13.50
43772;HTU21D;59066;54.782;32.024;2023-04-15T13:29:06;14.11;13.58
43772;HTU21D;59066;54.782;32.024;2023-04-15T13:31:34;14.14;13.53
43772;HTU21D;59066;54.782;32.024;2023-04-15T13:34:01;14.14;13.52
43772;HTU21D;59066;54.782;32.024;2023-04-15T13:36:29;13.93;13.71
43772;HTU21D;59066;54.782;32.024;2023-04-15T13:38:57;13.84;13.71
43772;HTU21D;59066;54.782;32.024;2023-04-15T13:41:26;13.80;13.81
43772;HTU21D;59066;54.782;32.024;2023-04-15T13:43:53;13.75;13.91
43772;HTU21D;59066;54.782;32.024;2023-04-15T13:46:21;13.50;14.08
43772;HTU21D;59066;54.782;32.024;2023-04-15T13:48:48;13.29;14.31
43772;HTU21D;59066;54.782;32.024;2023-04-15T13:51:16;13.39;14.39
43772;HTU21D;59066;54.782;32.024;2023-04-15T13:53:43;13.56;14.51
43772;HTU21D;59066;54.782;32.024;2023-04-15T13:56:11;13.51;14.39
43772;HTU21D;59066;54.782;32.024;2023-04-15T13:58:39;13.49;14.46
43772;HTU21D;59066;54.782;32.024;2023-04-15T14:01:07;13.47;14.44
43772;HTU21D;59066;54.782;32.024;2023-04-15T14:03:35;13.45;14.69
43772;HTU21D;59066;54.782;32.024;2023-04-15T14:06:04;13.46;14.71
43772;HTU21D;59066;54.782;32.024;2023-04-15T14:08:32;13.30;14.77
43772;HTU21D;59066;54.782;32.024;2023-04-15T14:11:00;13.21;14.87
43772;HTU21D;59066;54.782;32.024;2023-04-15T14:13:27;13.18;14.82
43772;HTU21D;59066;54.782;32.024;2023-04-15T14:15:56;13.15;14.84
43772;HTU21D;59066;54.782;32.024;2023-04-15T14:18:23;13.11;14.89
43772;HTU21D;59066;54.782;32.024;2023-04-15T14:20:51;13.05;14.93
43772;HTU21D;59066;54.782;32.024;2023-04-15T14:23:19;13.06;14.99
43772;HTU21D;59066;54.782;32.024;2023-04-15T14:25:46;13.04;15.23
43772;HTU21D;59066;54.782;32.024;2023-04-15T14:28:14;12.97;15.32
43772;HTU21D;59066;54.782;32.024;2023-04-15T14:30:42;13.00;15.39
43772;HTU21D;59066;54.782;32.024;2023-04-15T14:33:09;13.04;15.47
43772;HTU21D;59066;54.782;32.024;2023-04-15T14:35:37;13.04;15.58
43772;HTU21D;59066;54.782;32.024;2023-04-15T14:38:05;13.11;15.68
43772;HTU21D;59066;54.782;32.024;2023-04-15T14:40:37;13.08;15.82
43772;HTU21D;59066;54.782;32.024;2023-04-15T14:43:04;13.00;15.65
43772;HTU21D;59066;54.782;32.024;2023-04-15T14:45:32;12.75;15.69
43772;HTU21D;59066;54.782;32.024;2023-04-15T14:48:00;12.67;15.86
43772;HTU21D;59066;54.782;32.024;2023-04-15T14:50:28;12.58;15.85
43772;HTU21D;59066;54.782;32.024;2023-04-15T14:52:56;12.47;15.93
43772;HTU21D;59066;54.782;32.024;2023-04-15T14:55:23;12.33;16.09
43772;HTU21D;59066;54.782;32.024;2023-04-15T14:57:51;12.17;16.17
43772;HTU21D;59066;54.782;32.024;2023-04-15T15:00:18;12.20;16.19
43772;HTU21D;59066;54.782;32.024;2023-04-15T15:02:46;12.22;16.38
43772;HTU21D;59066;54.782;32.024;2023-04-15T15:05:14;12.15;16.48
43772;HTU21D;59066;54.782;32.024;2023-04-15T15:07:42;12.14;16.50
43772;HTU21D;59066;54.782;32.024;2023-04-15T15:10:10;12.08;16.60
43772;HTU21D;59066;54.782;32.024;2023-04-15T15:12:38;12.00;16.71
43772;HTU21D;59066;54.782;32.024;2023-04-15T15:15:06;11.98;16.84
43772;HTU21D;59066;54.782;32.024;2023-04-15T15:17:45;11.85;17.02
43772;HTU21D;59066;54.782;32.024;2023-04-15T15:20:13;11.81;17.07
43772;HTU21D;59066;54.782;32.024;2023-04-15T15:22:40;11.74;17.22
43772;HTU21D;59066;54.782;32.024;2023-04-15T15:25:08;11.74;17.41
43772;HTU21D;59066;54.782;32.024;2023-04-15T15:27:36;11.68;17.57
43772;HTU21D;59066;54.782;32.024;2023-04-15T15:30:05;11.67;17.71
43772;HTU21D;59066;54.782;32.024;2023-04-15T15:32:33;11.58;17.62
43772;HTU21D;59066;54.782;32.024;2023-04-15T15:35:00;11.62;17.63
43772;HTU21D;59066;54.782;32.024;2023-04-15T15:37:29;11.63;17.69